TimeCDT,TemperatureF,Dew PointF,Humidity,Sea Level PressureIn,VisibilityMPH,Wind Direction,Wind SpeedMPH,Gust SpeedMPH,PrecipitationIn,Events,Conditions,WindDirDegrees,DateUTC
12:15 AM,69.8,60.8,73,29.98,10.0,SSE,13.8,-,N/A,,Clear,160,2012-10-14 05:15:00
12:35 AM,69.8,62.6,78,29.97,10.0,SSE,15.0,-,N/A,,Clear,160,2012-10-14 05:35:00
12:55 AM,71.6,62.6,73,29.96,10.0,South,16.1,-,N/A,,Clear,170,2012-10-14 05:55:00
1:15 AM,71.6,62.6,73,29.96,10.0,South,20.7,26.5,N/A,,Clear,170,2012-10-14 06:15:00
1:35 AM,71.6,62.6,73,29.95,10.0,South,17.3,23.0,N/A,,Clear,170,2012-10-14 06:35:00
1:55 AM,71.6,62.6,73,29.95,10.0,South,19.6,-,N/A,,Clear,170,2012-10-14 06:55:00
2:15 AM,71.6,64.4,78,29.95,10.0,South,15.0,20.7,N/A,,Clear,170,2012-10-14 07:15:00
2:35 AM,71.6,64.4,78,29.97,10.0,South,19.6,25.3,N/A,,Scattered Clouds,180,2012-10-14 07:35:00
2:55 AM,71.6,64.4,78,29.98,10.0,South,16.1,23.0,N/A,,Mostly Cloudy,190,2012-10-14 07:55:00
3:15 AM,71.6,64.4,78,29.97,10.0,South,18.4,25.3,N/A,,Overcast,180,2012-10-14 08:15:00
3:35 AM,71.6,64.4,78,29.97,10.0,South,16.1,23.0,N/A,,Overcast,180,2012-10-14 08:35:00
3:55 AM,71.6,64.4,78,29.96,10.0,South,16.1,23.0,N/A,,Overcast,180,2012-10-14 08:55:00
4:15 AM,71.6,66.2,83,29.98,10.0,South,15.0,24.2,N/A,,Overcast,190,2012-10-14 09:15:00
4:35 AM,71.6,66.2,83,29.99,10.0,South,19.6,25.3,N/A,,Overcast,190,2012-10-14 09:35:00
4:55 AM,71.6,66.2,83,30.00,10.0,SSW,16.1,21.9,N/A,Rain,Light Rain,200,2012-10-14 09:55:00
5:15 AM,71.6,66.2,83,30.00,10.0,South,18.4,23.0,N/A,,Overcast,190,2012-10-14 10:15:00
5:35 AM,71.6,64.4,78,30.02,10.0,West,20.7,28.8,N/A,Rain,Light Rain,270,2012-10-14 10:35:00
5:55 AM,64.4,62.6,94,30.00,3.0,SSW,17.3,23.0,0.10,Rain,Rain,210,2012-10-14 10:55:00
6:15 AM,64.4,60.8,88,30.02,7.0,South,15.0,19.6,0.09,Rain-Thunderstorm,Rain,180,2012-10-14 11:15:00
6:35 AM,64.4,60.8,88,30.02,5.0,South,16.1,21.9,0.14,Rain,Rain,180,2012-10-14 11:35:00
6:55 AM,62.6,60.8,94,30.02,10.0,South,15.0,-,0.15,Rain,Light Rain,180,2012-10-14 11:55:00
7:15 AM,64.4,60.8,88,30.03,5.0,South,23.0,31.1,0.03,Rain,Rain,190,2012-10-14 12:15:00
7:35 AM,64.4,60.8,88,30.02,5.0,South,23.0,29.9,0.08,Rain,Rain,190,2012-10-14 12:35:00
7:55 AM,64.4,60.8,88,30.01,10.0,South,19.6,29.9,0.10,Rain,Light Rain,190,2012-10-14 12:55:00
8:15 AM,64.4,60.8,88,30.00,10.0,South,19.6,26.5,N/A,Rain,Light Rain,180,2012-10-14 13:15:00
8:35 AM,64.4,60.8,88,29.97,10.0,South,24.2,29.9,N/A,,Light Drizzle,170,2012-10-14 13:35:00
8:55 AM,64.4,60.8,88,29.96,10.0,South,23.0,29.9,N/A,,Clear,170,2012-10-14 13:55:00
9:15 AM,64.4,60.8,88,29.97,10.0,South,19.6,29.9,N/A,,Clear,170,2012-10-14 14:15:00
9:35 AM,66.2,60.8,83,29.95,10.0,South,20.7,27.6,N/A,Rain,Light Rain,180,2012-10-14 14:35:00
9:55 AM,66.2,60.8,83,30.00,10.0,SSW,16.1,21.9,N/A,,Scattered Clouds,200,2012-10-14 14:55:00
10:15 AM,66.2,60.8,83,30.01,10.0,SSW,15.0,-,N/A,,Clear,200,2012-10-14 15:15:00
10:35 AM,68.0,62.6,83,30.02,10.0,SSW,21.9,32.2,N/A,,Clear,200,2012-10-14 15:35:00
10:55 AM,68.0,62.6,83,30.01,10.0,South,18.4,27.6,N/A,,Clear,190,2012-10-14 15:55:00
11:15 AM,68.0,62.6,83,30.00,10.0,SSW,20.7,26.5,N/A,,Clear,200,2012-10-14 16:15:00
11:35 AM,69.8,62.6,78,29.99,10.0,SSW,27.6,33.4,N/A,,Clear,200,2012-10-14 16:35:00
11:55 AM,69.8,62.6,78,29.98,10.0,South,21.9,27.6,N/A,,Clear,190,2012-10-14 16:55:00
12:15 PM,71.6,62.6,73,29.98,10.0,SSW,20.7,31.1,N/A,,Scattered Clouds,200,2012-10-14 17:15:00
12:35 PM,71.6,64.4,78,29.98,10.0,SSW,21.9,28.8,N/A,,Scattered Clouds,200,2012-10-14 17:35:00
12:55 PM,73.4,64.4,73,29.97,10.0,SSW,21.9,34.5,N/A,,Scattered Clouds,210,2012-10-14 17:55:00
1:15 PM,73.4,64.4,73,29.97,10.0,SSW,18.4,33.4,N/A,,Scattered Clouds,210,2012-10-14 18:15:00
1:35 PM,73.4,64.4,73,29.96,10.0,SW,17.3,25.3,N/A,,Scattered Clouds,220,2012-10-14 18:35:00
1:55 PM,73.4,64.4,73,29.95,10.0,SW,18.4,26.5,N/A,,Scattered Clouds,220,2012-10-14 18:55:00
2:15 PM,75.2,64.4,69,29.94,10.0,SSW,20.7,26.5,N/A,,Scattered Clouds,210,2012-10-14 19:15:00
2:35 PM,73.4,64.4,73,29.94,10.0,SW,17.3,26.5,N/A,,Mostly Cloudy,220,2012-10-14 19:35:00
3:15 PM,77.0,66.2,69,29.93,10.0,SW,15.0,24.2,N/A,,Scattered Clouds,230,2012-10-14 20:15:00
3:35 PM,77.0,66.2,69,29.93,10.0,SW,20.7,25.3,N/A,,Scattered Clouds,220,2012-10-14 20:35:00
3:55 PM,77.0,66.2,69,29.93,10.0,WSW,17.3,-,N/A,,Scattered Clouds,240,2012-10-14 20:55:00
4:15 PM,77.0,66.2,69,29.93,10.0,SW,19.6,-,N/A,,Scattered Clouds,230,2012-10-14 21:15:00
4:35 PM,77.0,66.2,69,29.93,10.0,SW,17.3,21.9,N/A,,Scattered Clouds,230,2012-10-14 21:35:00
4:55 PM,77.0,64.4,65,29.93,10.0,SW,11.5,21.9,N/A,,Clear,230,2012-10-14 21:55:00
5:15 PM,77.0,64.4,65,29.93,10.0,WSW,11.5,-,N/A,,Scattered Clouds,240,2012-10-14 22:15:00
5:35 PM,75.2,66.2,73,29.93,10.0,SW,9.2,-,N/A,,Scattered Clouds,230,2012-10-14 22:35:00
5:55 PM,73.4,66.2,78,29.93,10.0,WSW,6.9,-,N/A,,Scattered Clouds,250,2012-10-14 22:55:00
6:15 PM,73.4,64.4,73,29.94,10.0,WSW,8.1,-,N/A,,Scattered Clouds,250,2012-10-14 23:15:00
6:55 PM,69.8,62.6,78,29.95,10.0,West,5.8,-,N/A,,Clear,270,2012-10-14 23:55:00
7:15 PM,69.8,62.6,78,29.95,10.0,West,5.8,-,N/A,,Clear,280,2012-10-15 00:15:00
7:35 PM,68.0,60.8,78,29.95,10.0,West,5.8,-,N/A,,Clear,270,2012-10-15 00:35:00
7:55 PM,64.4,60.8,88,29.96,10.0,Calm,Calm,-,N/A,,Clear,0,2012-10-15 00:55:00
8:15 PM,64.4,60.8,88,29.96,10.0,Calm,Calm,-,N/A,,Clear,0,2012-10-15 01:15:00
8:35 PM,64.4,60.8,88,29.97,10.0,WSW,3.5,-,N/A,,Clear,240,2012-10-15 01:35:00
8:55 PM,64.4,60.8,88,29.98,10.0,Calm,Calm,-,N/A,,Clear,0,2012-10-15 01:55:00
9:15 PM,64.4,60.8,88,29.98,10.0,Calm,Calm,-,N/A,,Clear,0,2012-10-15 02:15:00
9:35 PM,64.4,60.8,88,29.98,10.0,WSW,4.6,-,N/A,,Clear,250,2012-10-15 02:35:00
9:55 PM,62.6,59.0,88,29.98,10.0,West,4.6,-,N/A,,Clear,280,2012-10-15 02:55:00
10:15 PM,64.4,59.0,83,29.98,10.0,WNW,6.9,-,N/A,,Clear,290,2012-10-15 03:15:00
10:35 PM,64.4,59.0,83,29.99,10.0,NW,8.1,-,N/A,,Clear,310,2012-10-15 03:35:00
10:55 PM,62.6,57.2,82,30.00,10.0,NW,5.8,-,N/A,,Clear,320,2012-10-15 03:55:00
11:15 PM,62.6,57.2,82,30.00,10.0,NW,3.5,-,N/A,,Clear,320,2012-10-15 04:15:00
11:35 PM,64.4,57.2,77,30.00,10.0,Calm,Calm,-,N/A,,Clear,0,2012-10-15 04:35:00
11:55 PM,64.4,57.2,77,30.00,10.0,NW,3.5,-,N/A,,Clear,310,2012-10-15 04:55:00